Time;durP1;ratioP1;P1;durP2;ratioP2;P2;SDS_P1;SDS_P2;PMS_P1;PMS_P2;Temp;Humidity;BMP_temperature;BMP_pressure;BME280_temperature;BME280_humidity;BME280_pressure;Samples;Min_cycle;Max_cycle;Signal;HPM_P1;HPM_P2
2023/08/21 00:00:36;;;;;;;8.77;7.97;;;30.60;57.10;;;;;;5014379;28;20212;-51
2023/08/21 00:03:01;;;;;;;8.93;8.00;;;30.70;56.40;;;;;;5014049;28;20205;-48
2023/08/21 00:05:27;;;;;;;9.03;8.03;;;30.70;56.40;;;;;;5014527;28;20194;-51
2023/08/21 00:07:52;;;;;;;8.80;7.90;;;30.70;56.50;;;;;;5013525;28;20200;-52
2023/08/21 00:10:18;;;;;;;8.70;7.90;;;30.70;57.30;;;;;;5014434;28;20602;-49
2023/08/21 00:12:44;;;;;;;9.23;8.27;;;30.60;56.80;;;;;;5013652;28;20198;-51
2023/08/21 00:15:10;;;;;;;9.13;7.97;;;30.60;57.00;;;;;;5014975;28;20244;-47
2023/08/21 00:17:35;;;;;;;8.10;7.30;;;30.60;56.90;;;;;;5017121;28;20200;-49
2023/08/21 00:20:01;;;;;;;8.17;7.37;;;30.60;56.90;;;;;;5014255;28;20920;-47
2023/08/21 00:22:27;;;;;;;8.07;7.30;;;30.50;56.90;;;;;;5012058;28;20194;-49
2023/08/21 00:24:53;;;;;;;8.60;7.90;;;30.50;57.00;;;;;;5014106;28;20433;-48
2023/08/21 00:27:18;;;;;;;9.00;7.60;;;30.50;57.10;;;;;;5011943;28;20205;-48
2023/08/21 00:29:44;;;;;;;8.83;7.57;;;30.40;57.20;;;;;;5013684;28;20625;-51
2023/08/21 00:32:11;;;;;;;10.40;7.67;;;30.30;57.30;;;;;;5013384;28;20197;-46
2023/08/21 00:34:37;;;;;;;9.17;8.07;;;30.30;57.40;;;;;;5013624;28;20645;-46
2023/08/21 00:37:03;;;;;;;8.00;7.30;;;30.20;57.70;;;;;;5013240;28;20488;-46
2023/08/21 00:39:28;;;;;;;9.17;8.27;;;30.20;57.70;;;;;;5013958;28;20736;-46
2023/08/21 00:41:54;;;;;;;8.00;7.30;;;30.30;57.60;;;;;;5013366;28;20252;-46
2023/08/21 00:44:20;;;;;;;9.07;8.17;;;30.30;57.60;;;;;;5012292;28;20198;-46
2023/08/21 00:46:46;;;;;;;10.03;8.37;;;30.30;57.60;;;;;;5012975;28;20461;-46
2023/08/21 00:49:12;;;;;;;9.13;7.63;;;30.20;57.70;;;;;;5012276;28;20189;-46
2023/08/21 00:51:38;;;;;;;8.37;7.70;;;30.20;57.70;;;;;;5013039;28;20696;-47
2023/08/21 00:54:03;;;;;;;8.17;7.37;;;30.20;57.70;;;;;;5013444;28;20433;-47
2023/08/21 00:56:29;;;;;;;8.70;7.80;;;30.20;57.60;;;;;;5012721;28;20253;-45
2023/08/21 00:58:55;;;;;;;11.30;7.90;;;30.20;57.50;;;;;;5013372;28;20650;-47
2023/08/21 01:01:25;;;;;;;8.83;8.00;;;30.10;57.60;;;;;;5012855;28;20428;-46
2023/08/21 01:03:51;;;;;;;8.93;8.13;;;30.10;57.70;;;;;;5013299;28;20194;-46
2023/08/21 01:06:18;;;;;;;8.37;7.70;;;30.10;57.80;;;;;;5012740;28;20511;-46
2023/08/21 01:09:08;;;;;;;9.77;8.70;;;30.10;57.90;;;;;;5012743;28;20285;-46
2023/08/21 01:11:39;;;;;;;8.73;8.03;;;30.00;58.00;;;;;;5012936;28;20437;-46
2023/08/21 01:14:38;;;;;;;8.83;8.13;;;30.00;58.10;;;;;;5013000;28;20433;-47
2023/08/21 01:17:06;;;;;;;8.83;8.00;;;29.90;58.60;;;;;;5005177;28;20499;-46
2023/08/21 01:19:34;;;;;;;9.03;8.33;;;29.80;58.80;;;;;;5013126;28;20804;-47
2023/08/21 01:22:00;;;;;;;9.83;7.93;;;29.70;58.90;;;;;;5012694;28;20468;-46
2023/08/21 01:24:26;;;;;;;9.67;8.57;;;29.60;59.20;;;;;;5012354;28;20796;-51
2023/08/21 01:26:51;;;;;;;9.57;8.67;;;29.60;59.40;;;;;;5012688;28;20429;-46
2023/08/21 01:29:17;;;;;;;7.57;7.00;;;29.40;59.50;;;;;;5010993;28;20678;-45
2023/08/21 01:31:50;;;;;;;8.73;7.87;;;29.30;59.80;;;;;;5012288;28;20200;-47
2023/08/21 01:34:16;;;;;;;9.03;8.20;;;29.30;59.90;;;;;;5013067;28;20611;-46
2023/08/21 01:36:43;;;;;;;8.77;8.00;;;29.20;60.00;;;;;;5012331;28;20524;-45
2023/08/21 01:39:09;;;;;;;9.03;8.27;;;29.00;60.90;;;;;;5012601;28;20421;-47
2023/08/21 01:41:34;;;;;;;8.50;7.70;;;28.90;61.30;;;;;;5010997;28;20479;-45
2023/08/21 01:44:00;;;;;;;8.90;8.10;;;28.90;61.20;;;;;;5012930;28;20988;-46
2023/08/21 01:46:25;;;;;;;9.40;8.50;;;28.90;61.40;;;;;;5012224;28;20230;-46
2023/08/21 01:48:51;;;;;;;10.20;9.23;;;28.80;61.80;;;;;;5013067;28;20665;-45
2023/08/21 01:51:16;;;;;;;9.43;8.67;;;28.50;62.70;;;;;;5011945;28;20185;-46
2023/08/21 01:53:42;;;;;;;10.80;8.30;;;28.40;63.10;;;;;;5012819;28;20238;-46
2023/08/21 01:56:07;;;;;;;8.53;7.83;;;28.50;62.40;;;;;;5012100;28;20241;-46
2023/08/21 01:58:33;;;;;;;9.80;8.80;;;28.70;62.00;;;;;;5012533;28;20196;-46
2023/08/21 02:00:59;;;;;;;7.97;7.37;;;28.80;61.60;;;;;;5012148;28;20668;-45
2023/08/21 02:03:27;;;;;;;8.77;7.93;;;28.80;61.20;;;;;;5012862;28;20665;-46
2023/08/21 02:05:59;;;;;;;9.70;8.53;;;28.90;61.00;;;;;;5011994;28;20669;-47
2023/08/21 02:08:32;;;;;;;9.00;8.00;;;28.90;60.90;;;;;;5011154;28;20896;-46
2023/08/21 02:10:57;;;;;;;9.20;8.40;;;28.90;60.90;;;;;;5011986;28;20811;-47
2023/08/21 02:13:23;;;;;;;8.17;7.57;;;28.90;60.70;;;;;;5012593;28;20452;-46
2023/08/21 02:15:49;;;;;;;8.13;7.53;;;28.80;61.00;;;;;;5015165;28;20221;-49
2023/08/21 02:18:14;;;;;;;9.83;9.03;;;28.80;61.30;;;;;;5012311;28;20194;-46
2023/08/21 02:20:40;;;;;;;9.50;8.63;;;28.80;61.40;;;;;;5012138;28;20275;-46
2023/08/21 02:23:06;;;;;;;9.83;8.87;;;28.80;61.40;;;;;;5015928;28;20599;-46
2023/08/21 02:25:32;;;;;;;9.70;8.90;;;28.50;62.20;;;;;;5013474;28;20606;-47
2023/08/21 02:27:58;;;;;;;8.90;8.20;;;28.50;62.60;;;;;;5015624;28;20269;-45
2023/08/21 02:30:25;;;;;;;10.27;8.27;;;28.50;63.50;;;;;;5016150;28;20478;-46
2023/08/21 02:32:54;;;;;;;11.97;8.87;;;28.50;62.90;;;;;;5002019;28;20198;-46
2023/08/21 02:35:22;;;;;;;9.40;8.50;;;28.40;63.20;;;;;;5009299;28;20480;-45
2023/08/21 02:37:48;;;;;;;8.70;7.80;;;28.40;63.50;;;;;;5015381;28;20451;-46
2023/08/21 02:40:14;;;;;;;8.87;8.17;;;28.40;63.80;;;;;;5015984;28;20508;-45
2023/08/21 02:42:39;;;;;;;9.33;8.50;;;28.40;64.10;;;;;;5015410;28;20273;-45
2023/08/21 02:45:08;;;;;;;9.57;8.57;;;28.30;64.70;;;;;;5016216;28;20662;-45
2023/08/21 02:47:37;;;;;;;9.80;8.90;;;28.20;65.60;;;;;;5015056;28;20229;-45
2023/08/21 02:50:05;;;;;;;10.53;9.43;;;28.10;65.80;;;;;;5015945;28;20511;-46
2023/08/21 02:52:31;;;;;;;9.70;8.90;;;28.00;66.10;;;;;;5013767;28;20531;-46
2023/08/21 02:54:57;;;;;;;9.17;8.37;;;28.00;66.40;;;;;;5015783;28;20432;-48
2023/08/21 02:57:24;;;;;;;9.87;8.80;;;28.00;66.30;;;;;;5015238;28;20520;-45
2023/08/21 02:59:50;;;;;;;8.70;7.90;;;28.00;66.30;;;;;;5015808;28;20221;-45
2023/08/21 03:02:15;;;;;;;9.90;9.10;;;28.00;65.90;;;;;;5013328;28;20869;-46
2023/08/21 03:04:41;;;;;;;9.93;8.60;;;28.10;65.80;;;;;;5015290;28;20209;-47
2023/08/21 03:07:07;;;;;;;9.60;8.60;;;28.00;66.10;;;;;;5014947;28;20256;-47
2023/08/21 03:09:32;;;;;;;11.70;9.57;;;27.90;66.50;;;;;;5015633;28;20194;-48
2023/08/21 03:11:58;;;;;;;9.90;8.73;;;28.00;66.30;;;;;;5014712;28;20299;-46
2023/08/21 03:14:26;;;;;;;11.73;8.97;;;27.90;66.00;;;;;;5015623;28;20244;-45
2023/08/21 03:16:52;;;;;;;9.87;9.07;;;28.00;66.00;;;;;;5024786;28;20229;-47
2023/08/21 03:19:18;;;;;;;10.63;8.67;;;28.00;65.60;;;;;;5015626;28;20426;-47
2023/08/21 03:21:43;;;;;;;9.63;8.83;;;28.00;65.60;;;;;;5014473;28;20227;-47
2023/08/21 03:24:09;;;;;;;8.97;8.27;;;28.00;66.10;;;;;;5015099;28;20216;-45
2023/08/21 03:26:34;;;;;;;9.60;8.70;;;28.00;66.10;;;;;;5012696;28;20202;-49
2023/08/21 03:29:00;;;;;;;9.27;8.37;;;28.00;66.00;;;;;;5014331;28;20202;-48
2023/08/21 03:31:26;;;;;;;10.00;9.10;;;28.10;66.00;;;;;;5014095;28;20259;-45
2023/08/21 03:33:52;;;;;;;11.30;9.50;;;28.10;65.70;;;;;;5014528;28;20218;-47
2023/08/21 03:36:18;;;;;;;11.50;10.30;;;28.10;65.70;;;;;;5014684;28;20597;-46
2023/08/21 03:38:44;;;;;;;9.30;8.50;;;28.00;65.80;;;;;;5014424;28;20206;-46
2023/08/21 03:41:11;;;;;;;9.37;8.57;;;28.10;66.00;;;;;;5014545;28;20556;-46
2023/08/21 03:43:36;;;;;;;9.70;8.87;;;28.00;66.10;;;;;;5014974;28;20193;-47
2023/08/21 03:46:02;;;;;;;10.97;9.97;;;27.90;66.80;;;;;;5014126;28;20555;-47
2023/08/21 03:48:27;;;;;;;11.10;10.20;;;27.70;67.60;;;;;;5014546;28;20288;-46
2023/08/21 03:50:53;;;;;;;12.33;9.77;;;27.70;68.10;;;;;;5014186;28;20189;-47
2023/08/21 03:53:19;;;;;;;11.50;10.40;;;27.60;68.20;;;;;;5012855;28;20205;-46
2023/08/21 03:55:44;;;;;;;9.87;9.00;;;27.70;68.20;;;;;;5010143;28;20229;-47
2023/08/21 03:58:10;;;;;;;11.30;9.20;;;27.60;68.20;;;;;;5014315;28;20299;-48
2023/08/21 04:00:36;;;;;;;14.13;9.00;;;27.50;69.00;;;;;;5014974;28;20193;-47
2023/08/21 04:03:02;;;;;;;11.77;8.80;;;27.30;69.70;;;;;;5014034;28;20720;-45
2023/08/21 04:05:27;;;;;;;10.43;9.03;;;27.40;69.80;;;;;;5014685;28;20201;-45
2023/08/21 04:07:53;;;;;;;10.27;9.40;;;27.40;69.40;;;;;;5013856;28;20921;-46
2023/08/21 04:10:18;;;;;;;9.83;8.90;;;27.40;69.20;;;;;;5014506;28;20553;-46
2023/08/21 04:12:44;;;;;;;10.90;9.90;;;27.40;69.10;;;;;;5013698;28;20248;-45
2023/08/21 04:15:10;;;;;;;12.03;9.67;;;27.50;68.70;;;;;;5014754;28;20301;-47
2023/08/21 04:17:35;;;;;;;10.40;9.60;;;27.60;68.10;;;;;;5020612;28;20604;-46
2023/08/21 04:20:01;;;;;;;9.60;8.80;;;27.70;67.70;;;;;;5012438;28;20296;-46
2023/08/21 04:22:27;;;;;;;9.60;8.60;;;27.70;67.40;;;;;;5013601;28;20190;-46
2023/08/21 04:24:52;;;;;;;9.83;9.03;;;27.80;66.70;;;;;;5013986;28;20281;-46
2023/08/21 04:27:18;;;;;;;9.83;8.43;;;27.80;65.90;;;;;;5013648;28;20197;-45
2023/08/21 04:29:43;;;;;;;10.53;9.50;;;27.80;65.10;;;;;;5001989;28;20217;-46
2023/08/21 04:32:09;;;;;;;9.83;8.93;;;27.80;65.20;;;;;;5013271;28;20495;-45
2023/08/21 04:34:35;;;;;;;10.13;9.23;;;27.80;65.30;;;;;;5002212;28;20201;-48
2023/08/21 04:37:00;;;;;;;9.63;8.80;;;27.80;65.20;;;;;;5013642;28;20704;-47
2023/08/21 04:39:26;;;;;;;9.77;8.93;;;27.80;65.20;;;;;;5013691;28;20433;-46
2023/08/21 04:41:52;;;;;;;13.40;9.07;;;27.80;65.00;;;;;;5013432;28;20222;-46
2023/08/21 04:44:17;;;;;;;11.60;8.27;;;27.80;65.90;;;;;;5013150;28;20248;-45
2023/08/21 04:46:43;;;;;;;10.50;9.17;;;27.70;65.90;;;;;;5011078;28;20232;-45
2023/08/21 04:49:09;;;;;;;9.20;8.40;;;27.70;65.10;;;;;;5013442;28;20660;-45
2023/08/21 04:51:34;;;;;;;10.70;9.63;;;27.70;65.00;;;;;;5004561;28;20664;-46
2023/08/21 04:54:00;;;;;;;10.43;9.20;;;27.80;64.80;;;;;;5008636;28;20209;-45
2023/08/21 04:56:26;;;;;;;9.93;7.43;;;27.60;65.40;;;;;;5011768;28;20225;-47
2023/08/21 04:58:52;;;;;;;9.47;8.67;;;27.50;66.00;;;;;;5013376;28;20580;-46
2023/08/21 05:01:18;;;;;;;9.97;8.60;;;27.50;66.50;;;;;;5012891;28;20269;-45
2023/08/21 05:03:44;;;;;;;9.10;8.40;;;27.20;67.90;;;;;;5013107;28;20515;-45
2023/08/21 05:06:09;;;;;;;10.33;9.30;;;27.10;68.50;;;;;;5012625;28;20198;-46
2023/08/21 05:08:35;;;;;;;9.47;8.67;;;27.00;68.80;;;;;;5013404;28;20634;-46
2023/08/21 05:11:01;;;;;;;10.27;9.27;;;26.90;69.20;;;;;;5009058;28;20186;-49
2023/08/21 05:13:27;;;;;;;12.03;10.90;;;26.80;70.40;;;;;;5011452;28;20767;-45
2023/08/21 05:15:56;;;;;;;10.70;9.70;;;26.70;70.90;;;;;;5016154;28;20472;-46
2023/08/21 05:18:23;;;;;;;10.37;9.47;;;26.70;71.30;;;;;;5013076;28;20190;-47
2023/08/21 05:20:50;;;;;;;10.43;9.50;;;26.70;70.70;;;;;;5011717;28;20443;-45
2023/08/21 05:23:16;;;;;;;11.40;10.23;;;26.70;70.60;;;;;;5013169;28;20417;-45
2023/08/21 05:25:43;;;;;;;10.17;9.27;;;26.70;71.00;;;;;;5012675;28;20429;-48
2023/08/21 05:28:08;;;;;;;11.47;9.37;;;26.70;70.70;;;;;;5012248;28;20438;-45
2023/08/21 05:30:36;;;;;;;11.07;10.17;;;26.80;70.30;;;;;;5012759;28;20448;-48
2023/08/21 05:33:02;;;;;;;10.30;9.33;;;26.90;69.80;;;;;;5009268;28;20568;-45
2023/08/21 05:35:27;;;;;;;10.83;9.67;;;27.10;69.30;;;;;;5008238;28;20481;-46
2023/08/21 05:37:53;;;;;;;10.27;9.47;;;27.20;68.80;;;;;;5012024;28;20519;-47
2023/08/21 05:40:19;;;;;;;11.47;10.37;;;27.20;69.10;;;;;;5011357;28;20304;-47
2023/08/21 05:42:44;;;;;;;10.47;9.57;;;27.30;69.10;;;;;;5012316;28;20661;-46
2023/08/21 05:45:10;;;;;;;10.30;9.40;;;27.00;71.00;;;;;;5012912;28;20201;-46
2023/08/21 05:47:35;;;;;;;11.00;9.90;;;26.90;72.10;;;;;;5012441;28;20309;-49
2023/08/21 05:50:01;;;;;;;13.90;10.83;;;26.80;72.90;;;;;;5012729;28;20546;-46
2023/08/21 05:52:27;;;;;;;11.93;9.87;;;26.80;73.70;;;;;;5012052;28;20198;-45
2023/08/21 05:54:53;;;;;;;11.73;10.73;;;26.70;74.40;;;;;;5012332;28;20417;-47
2023/08/21 05:57:18;;;;;;;10.77;9.87;;;26.90;73.50;;;;;;5011911;28;20236;-48
2023/08/21 05:59:45;;;;;;;14.43;9.60;;;27.10;72.70;;;;;;5012831;28;20197;-47
2023/08/21 06:02:11;;;;;;;11.10;10.30;;;27.20;72.10;;;;;;5012083;28;20196;-46
2023/08/21 06:04:41;;;;;;;11.10;9.93;;;27.30;71.70;;;;;;5012653;28;20433;-46
2023/08/21 06:07:07;;;;;;;11.33;10.30;;;27.50;70.90;;;;;;5010405;28;20432;-46
2023/08/21 06:09:33;;;;;;;10.17;9.17;;;27.70;69.90;;;;;;5012177;28;20421;-48
2023/08/21 06:12:01;;;;;;;11.47;9.83;;;27.70;69.60;;;;;;5008441;28;20209;-46
2023/08/21 06:14:28;;;;;;;12.20;10.73;;;27.90;69.40;;;;;;5010961;28;20798;-46
2023/08/21 06:17:01;;;;;;;10.23;9.43;;;27.80;69.50;;;;;;5023939;28;20487;-45
2023/08/21 06:19:27;;;;;;;12.33;9.10;;;27.80;69.80;;;;;;5012575;28;20468;-47
2023/08/21 06:21:54;;;;;;;10.27;9.37;;;27.90;69.10;;;;;;5011765;28;20860;-46
2023/08/21 06:24:20;;;;;;;10.33;9.40;;;28.00;69.00;;;;;;5012497;28;20425;-45
2023/08/21 06:26:45;;;;;;;9.00;8.20;;;28.20;68.20;;;;;;5011214;28;20982;-46
2023/08/21 06:29:11;;;;;;;10.07;9.07;;;28.50;67.10;;;;;;5012398;28;20231;-47
2023/08/21 06:31:36;;;;;;;10.60;9.60;;;28.70;66.20;;;;;;5011782;28;20414;-46
2023/08/21 06:34:02;;;;;;;13.53;9.87;;;28.70;65.40;;;;;;5010508;28;20277;-47
2023/08/21 06:36:27;;;;;;;10.20;9.27;;;28.80;65.20;;;;;;5011659;28;20222;-45
2023/08/21 06:38:53;;;;;;;9.03;8.37;;;28.70;65.50;;;;;;5012596;28;20410;-47
2023/08/21 06:41:19;;;;;;;10.30;9.07;;;28.80;65.30;;;;;;5011683;28;20197;-46
2023/08/21 06:43:45;;;;;;;11.13;10.07;;;29.10;64.30;;;;;;5012506;28;20185;-46
2023/08/21 06:46:11;;;;;;;10.30;8.67;;;29.30;63.10;;;;;;5011059;28;20332;-45
2023/08/21 06:48:40;;;;;;;11.20;10.20;;;29.50;62.80;;;;;;5012301;28;20429;-46
2023/08/21 06:51:06;;;;;;;11.70;10.60;;;29.70;61.30;;;;;;5011472;28;20936;-46
2023/08/21 06:53:32;;;;;;;10.27;9.23;;;29.90;60.30;;;;;;5012297;28;20479;-46
2023/08/21 06:55:57;;;;;;;10.80;9.90;;;30.00;59.20;;;;;;5011278;28;20300;-46
2023/08/21 06:58:23;;;;;;;11.23;10.23;;;30.20;58.90;;;;;;5010264;28;20185;-46
2023/08/21 07:00:48;;;;;;;10.60;9.50;;;30.40;58.20;;;;;;5011845;28;20190;-48
2023/08/21 07:03:14;;;;;;;11.47;10.57;;;30.60;57.80;;;;;;5011039;28;20194;-46
2023/08/21 07:05:40;;;;;;;10.07;8.87;;;30.80;57.10;;;;;;5011954;28;20665;-46
2023/08/21 07:08:05;;;;;;;10.80;8.40;;;30.90;56.80;;;;;;5013396;28;20649;-45
2023/08/21 07:10:38;;;;;;;11.07;10.17;;;31.00;56.30;;;;;;5015580;28;20244;-45
2023/08/21 07:13:04;;;;;;;10.57;9.57;;;31.20;56.00;;;;;;5014658;28;20213;-46
2023/08/21 07:15:30;;;;;;;11.17;10.03;;;31.40;55.50;;;;;;5018708;28;20476;-46
2023/08/21 07:17:55;;;;;;;9.27;8.47;;;31.60;55.10;;;;;;5016556;28;20202;-46
2023/08/21 07:20:21;;;;;;;10.37;9.30;;;31.80;54.90;;;;;;5015208;28;20273;-46
2023/08/21 07:22:47;;;;;;;10.30;9.40;;;31.90;54.50;;;;;;5014794;28;20186;-45
2023/08/21 07:25:13;;;;;;;9.43;8.30;;;32.00;54.20;;;;;;5012719;28;20482;-46
2023/08/21 07:27:39;;;;;;;9.30;8.40;;;32.20;53.70;;;;;;5012002;28;20202;-46
2023/08/21 07:30:06;;;;;;;10.43;9.43;;;32.40;53.10;;;;;;5015345;28;20201;-45
2023/08/21 07:32:31;;;;;;;8.93;8.03;;;32.50;53.00;;;;;;5013207;28;20603;-47
2023/08/21 07:34:57;;;;;;;9.13;8.37;;;32.60;52.90;;;;;;5015084;28;20441;-46
2023/08/21 07:37:23;;;;;;;9.00;8.30;;;32.60;52.40;;;;;;5014166;28;20750;-48
2023/08/21 07:39:48;;;;;;;9.37;8.43;;;32.70;52.00;;;;;;5015164;28;20198;-46
2023/08/21 07:42:14;;;;;;;10.30;9.17;;;32.90;51.40;;;;;;5014549;28;20221;-47
2023/08/21 07:44:40;;;;;;;8.70;7.90;;;33.10;51.20;;;;;;5015118;28;20274;-47
2023/08/21 07:47:06;;;;;;;10.13;9.27;;;33.20;51.40;;;;;;5013996;28;20323;-46
2023/08/21 07:49:32;;;;;;;9.00;8.20;;;33.30;50.70;;;;;;5014808;28;20932;-46
2023/08/21 07:51:58;;;;;;;8.30;7.60;;;33.50;50.60;;;;;;5012649;28;20570;-47
2023/08/21 07:54:24;;;;;;;8.63;7.93;;;33.60;50.60;;;;;;5014589;28;20432;-46
2023/08/21 07:56:50;;;;;;;8.63;7.70;;;33.60;50.20;;;;;;5013779;28;20229;-46
2023/08/21 07:59:16;;;;;;;8.90;8.20;;;33.80;50.90;;;;;;5001498;28;20276;-47
2023/08/21 08:01:41;;;;;;;9.00;8.33;;;33.80;49.90;;;;;;5014682;28;20454;-47
2023/08/21 08:04:08;;;;;;;9.87;8.80;;;33.90;49.50;;;;;;5014592;28;20190;-49
2023/08/21 08:06:33;;;;;;;9.40;8.20;;;33.90;49.50;;;;;;5013557;28;20198;-47
2023/08/21 08:08:59;;;;;;;9.10;8.30;;;34.10;49.40;;;;;;5014556;28;20431;-46
2023/08/21 08:11:25;;;;;;;9.00;8.30;;;34.30;49.80;;;;;;5013642;28;20277;-46
2023/08/21 08:13:50;;;;;;;8.83;8.13;;;34.30;49.30;;;;;;5014225;28;20190;-47
2023/08/21 08:16:16;;;;;;;7.93;7.23;;;34.50;49.20;;;;;;5022710;28;20232;-47
2023/08/21 08:18:42;;;;;;;10.63;9.63;;;34.40;48.80;;;;;;5012767;28;20194;-46
2023/08/21 08:21:08;;;;;;;10.20;9.13;;;34.40;48.90;;;;;;5013662;28;20756;-47
2023/08/21 08:23:34;;;;;;;8.90;8.10;;;34.70;49.50;;;;;;5014190;28;20212;-48
2023/08/21 08:26:00;;;;;;;8.73;7.93;;;34.80;48.00;;;;;;5013362;28;20433;-47
2023/08/21 08:28:25;;;;;;;10.50;9.43;;;34.90;48.10;;;;;;5014140;28;20194;-46
2023/08/21 08:30:51;;;;;;;9.57;8.87;;;35.10;48.00;;;;;;5013801;28;20229;-48
2023/08/21 08:33:17;;;;;;;9.40;8.60;;;35.30;46.90;;;;;;5013805;28;20190;-47
2023/08/21 08:35:43;;;;;;;8.63;7.93;;;35.40;47.10;;;;;;5014153;28;20221;-47
2023/08/21 08:38:09;;;;;;;9.77;9.03;;;35.40;48.30;;;;;;5013443;28;20228;-46
2023/08/21 08:40:45;;;;;;;9.47;8.77;;;35.60;46.60;;;;;;5013915;28;20864;-46
2023/08/21 08:43:14;;;;;;;8.60;7.80;;;35.80;46.50;;;;;;5013114;28;20198;-47
2023/08/21 08:45:41;;;;;;;10.57;9.10;;;35.90;45.80;;;;;;5012508;28;20433;-47
2023/08/21 08:48:07;;;;;;;8.57;7.97;;;36.00;45.60;;;;;;5013008;28;20468;-47
2023/08/21 08:50:34;;;;;;;10.77;8.80;;;36.10;45.50;;;;;;5013724;28;20486;-48
2023/08/21 08:53:00;;;;;;;10.33;8.33;;;36.20;45.50;;;;;;5013010;28;20429;-47
2023/08/21 08:55:26;;;;;;;9.10;8.30;;;36.30;45.20;;;;;;5013558;28;20484;-49
2023/08/21 08:57:53;;;;;;;9.50;8.60;;;36.40;44.90;;;;;;5012874;28;20429;-48
2023/08/21 09:00:20;;;;;;;9.70;8.90;;;36.60;45.00;;;;;;5013597;28;20292;-47
2023/08/21 09:02:46;;;;;;;9.10;8.40;;;36.70;44.40;;;;;;5012775;28;20494;-49
2023/08/21 09:05:12;;;;;;;9.13;8.33;;;36.70;44.40;;;;;;5013310;28;20893;-46
2023/08/21 09:07:38;;;;;;;9.10;8.40;;;36.70;44.00;;;;;;5012746;28;20481;-48
2023/08/21 09:10:04;;;;;;;9.07;8.20;;;36.80;43.80;;;;;;5013389;28;20433;-47
2023/08/21 09:12:33;;;;;;;9.33;8.73;;;36.80;44.20;;;;;;5011203;28;20471;-49
2023/08/21 09:14:59;;;;;;;9.10;8.30;;;37.00;44.10;;;;;;5013298;28;20425;-51
2023/08/21 09:17:26;;;;;;;9.13;8.30;;;37.10;43.40;;;;;;5015326;28;20494;-50
2023/08/21 09:19:52;;;;;;;9.00;8.27;;;37.10;44.10;;;;;;5013125;28;20212;-49
2023/08/21 09:22:18;;;;;;;9.80;9.00;;;37.10;43.60;;;;;;5012714;28;20425;-47
2023/08/21 09:25:06;;;;;;;9.60;8.43;;;37.20;44.00;;;;;;5013030;28;20202;-46
2023/08/21 09:27:33;;;;;;;9.43;8.73;;;37.40;42.80;;;;;;5012238;28;20436;-49
2023/08/21 09:30:01;;;;;;;8.80;8.10;;;37.50;42.70;;;;;;5012641;28;20441;-47
2023/08/21 09:32:27;;;;;;;8.17;7.40;;;37.60;42.30;;;;;;5012366;28;20435;-52
2023/08/21 09:34:53;;;;;;;9.70;8.43;;;37.80;42.20;;;;;;5012439;28;20424;-47
2023/08/21 09:37:18;;;;;;;8.90;8.00;;;37.90;41.70;;;;;;5010475;28;20256;-48
2023/08/21 09:39:45;;;;;;;9.70;8.90;;;38.10;41.70;;;;;;5013150;28;20186;-50
2023/08/21 09:42:10;;;;;;;9.20;8.37;;;38.20;41.60;;;;;;5012341;28;20201;-52
2023/08/21 09:44:41;;;;;;;8.80;8.10;;;38.30;40.40;;;;;;5012763;28;20528;-48
2023/08/21 09:47:11;;;;;;;7.43;6.90;;;38.40;39.90;;;;;;5012081;28;20245;-52
2023/08/21 09:49:39;;;;;;;8.07;7.40;;;38.50;39.80;;;;;;5012823;28;20444;-52
2023/08/21 09:52:06;;;;;;;8.80;8.00;;;38.60;39.00;;;;;;5012150;28;20486;-50
2023/08/21 09:54:33;;;;;;;10.00;8.70;;;38.80;38.70;;;;;;5012463;28;20936;-49
2023/08/21 09:57:03;;;;;;;8.90;8.07;;;38.90;39.30;;;;;;5012007;28;20542;-53
2023/08/21 09:59:32;;;;;;;8.80;7.90;;;39.10;39.90;;;;;;5011587;28;20518;-50
2023/08/21 10:02:04;;;;;;;7.93;7.20;;;39.20;38.60;;;;;;5011929;28;20429;-48
2023/08/21 10:04:32;;;;;;;9.07;8.27;;;39.40;38.70;;;;;;5010962;28;20432;-48
2023/08/21 10:07:00;;;;;;;8.93;7.80;;;39.50;38.30;;;;;;5012103;28;20478;-52
2023/08/21 10:09:28;;;;;;;8.43;7.80;;;39.50;38.40;;;;;;5012774;28;20523;-51
2023/08/21 10:11:54;;;;;;;9.07;8.37;;;39.50;38.00;;;;;;5012054;28;20464;-53
2023/08/21 10:14:25;;;;;;;7.43;6.83;;;39.60;37.60;;;;;;5012726;28;20486;-52
2023/08/21 10:16:54;;;;;;;8.30;7.70;;;39.70;37.80;;;;;;5021303;28;20235;-51
2023/08/21 10:19:20;;;;;;;8.00;7.40;;;39.80;37.60;;;;;;5012728;28;20450;-50
2023/08/21 10:21:49;;;;;;;8.20;7.40;;;40.00;37.30;;;;;;5011993;28;20420;-51
2023/08/21 10:24:28;;;;;;;8.27;7.57;;;40.10;37.00;;;;;;5012936;28;20515;-51
2023/08/21 10:26:54;;;;;;;7.97;7.37;;;40.30;37.00;;;;;;5004431;28;20435;-49
2023/08/21 10:29:19;;;;;;;8.40;7.70;;;40.40;36.50;;;;;;5012520;28;20428;-53
2023/08/21 10:31:45;;;;;;;8.30;7.60;;;40.50;35.60;;;;;;5010148;28;20232;-52
2023/08/21 10:34:14;;;;;;;8.80;6.90;;;40.60;35.70;;;;;;5012452;28;20201;-53
2023/08/21 10:36:43;;;;;;;7.80;7.30;;;40.70;35.20;;;;;;5011421;28;20363;-53
2023/08/21 10:39:18;;;;;;;10.27;7.00;;;40.70;35.10;;;;;;5012564;28;20451;-50
2023/08/21 10:42:09;;;;;;;7.50;6.70;;;40.80;34.70;;;;;;5012081;28;20866;-53
2023/08/21 10:44:36;;;;;;;6.83;6.33;;;40.80;34.30;;;;;;5016128;28;20455;-53
2023/08/21 10:47:23;;;;;;;8.07;7.23;;;40.90;34.20;;;;;;5015496;28;20882;-51
2023/08/21 10:49:55;;;;;;;8.00;7.30;;;41.00;33.50;;;;;;5015752;28;20851;-51
2023/08/21 10:52:27;;;;;;;8.37;7.13;;;40.90;33.60;;;;;;5015429;28;20435;-52
2023/08/21 10:54:58;;;;;;;8.40;7.57;;;40.50;34.00;;;;;;5015854;28;20439;-53
2023/08/21 10:57:25;;;;;;;8.43;7.50;;;40.60;34.40;;;;;;5013151;28;20522;-51
2023/08/21 10:59:58;;;;;;;7.80;7.13;;;40.70;35.60;;;;;;5006757;28;20432;-53
2023/08/21 11:02:28;;;;;;;7.23;6.53;;;40.90;34.30;;;;;;5015064;28;20482;-53
2023/08/21 11:04:53;;;;;;;7.70;7.00;;;41.20;33.50;;;;;;5015691;28;20550;-50
2023/08/21 11:07:19;;;;;;;8.63;7.03;;;41.20;33.50;;;;;;5015138;28;20919;-53
2023/08/21 11:09:45;;;;;;;7.20;6.60;;;41.30;33.30;;;;;;5015619;28;20189;-53
2023/08/21 11:12:20;;;;;;;8.03;7.43;;;41.40;33.10;;;;;;5015377;28;20201;-51
2023/08/21 11:14:45;;;;;;;8.00;7.30;;;41.50;33.40;;;;;;5015727;28;20224;-51
2023/08/21 11:17:12;;;;;;;7.80;7.20;;;41.60;33.30;;;;;;5017270;28;20569;-52
2023/08/21 11:19:38;;;;;;;7.53;7.03;;;41.80;34.00;;;;;;5015559;28;20284;-52
2023/08/21 11:22:05;;;;;;;7.90;7.17;;;41.90;33.00;;;;;;5014773;28;20436;-53
2023/08/21 11:24:43;;;;;;;7.50;6.90;;;41.90;33.10;;;;;;5013914;28;20455;-53
2023/08/21 11:27:16;;;;;;;7.53;6.83;;;42.00;33.60;;;;;;5014336;28;20766;-53
2023/08/21 11:29:44;;;;;;;7.70;7.10;;;42.10;33.30;;;;;;5009637;28;20193;-51
2023/08/21 11:32:14;;;;;;;10.70;7.80;;;42.20;32.50;;;;;;5011184;28;20201;-54
2023/08/21 11:34:42;;;;;;;8.20;7.28;;;42.30;32.20;;;;;;5012812;28;20197;-53
2023/08/21 11:37:08;;;;;;;9.17;8.07;;;42.40;33.20;;;;;;5014541;28;20298;-51
2023/08/21 11:39:44;;;;;;;7.90;7.00;;;42.40;32.00;;;;;;5015203;28;20731;-53
2023/08/21 11:42:12;;;;;;;8.70;7.90;;;42.20;31.70;;;;;;5014730;28;20275;-53
2023/08/21 11:44:45;;;;;;;7.23;6.60;;;41.90;32.20;;;;;;5014949;28;20224;-53
2023/08/21 11:47:12;;;;;;;8.40;7.70;;;41.80;33.40;;;;;;5014391;28;20244;-53
2023/08/21 11:49:41;;;;;;;8.50;7.80;;;41.80;32.60;;;;;;5013325;28;20432;-53
2023/08/21 11:52:07;;;;;;;8.30;7.67;;;41.70;34.00;;;;;;5013907;28;20439;-52
2023/08/21 11:54:37;;;;;;;8.13;7.30;;;41.60;34.10;;;;;;5014220;28;20204;-53
2023/08/21 11:57:13;;;;;;;7.67;7.10;;;41.80;33.80;;;;;;5012485;28;20310;-53
2023/08/21 11:59:40;;;;;;;8.27;6.70;;;41.90;33.00;;;;;;5014785;28;20440;-53
2023/08/21 12:02:26;;;;;;;8.20;7.50;;;42.10;32.50;;;;;;5014256;28;20602;-52
2023/08/21 12:04:53;;;;;;;8.43;7.67;;;42.20;32.10;;;;;;5014553;28;20443;-47
2023/08/21 12:07:19;;;;;;;9.20;7.53;;;42.10;32.00;;;;;;5013915;28;20201;-47
2023/08/21 12:09:49;;;;;;;9.03;8.23;;;42.00;32.20;;;;;;5014459;28;20649;-47
2023/08/21 12:12:14;;;;;;;8.88;8.18;;;42.30;32.00;;;;;;5013947;28;20197;-48
2023/08/21 12:14:40;;;;;;;8.57;7.72;;;42.40;31.90;;;;;;5014405;28;20537;-47
2023/08/21 12:17:07;;;;;;;7.93;7.22;;;42.60;31.50;;;;;;5020708;28;20316;-47
2023/08/21 12:19:33;;;;;;;7.43;6.72;;;42.80;31.30;;;;;;5014303;28;20243;-47
2023/08/21 12:21:58;;;;;;;10.63;7.13;;;42.50;30.20;;;;;;5013906;28;20185;-49
2023/08/21 12:24:24;;;;;;;10.73;7.78;;;42.30;31.70;;;;;;5014326;28;20202;-47
2023/08/21 12:26:50;;;;;;;7.82;7.10;;;42.20;32.20;;;;;;5013413;28;20201;-47
2023/08/21 12:29:15;;;;;;;8.20;7.45;;;42.50;31.50;;;;;;5014351;28;20198;-50
2023/08/21 12:31:41;;;;;;;7.93;7.22;;;42.50;31.00;;;;;;5012830;28;20213;-49
2023/08/21 12:34:07;;;;;;;8.88;7.85;;;42.60;32.10;;;;;;5014371;28;20244;-47
2023/08/21 12:36:35;;;;;;;8.63;7.93;;;42.70;31.60;;;;;;5013223;28;20259;-50
2023/08/21 12:39:02;;;;;;;9.38;7.70;;;43.00;30.20;;;;;;5003154;28;20198;-48
2023/08/21 12:41:27;;;;;;;8.07;7.13;;;43.10;29.70;;;;;;5012304;28;20200;-48